Lightstreet, Pennsylvania
Current Conditions -  °F | °C
As of 11:15 AM on Monday 24 Nov 2014 (Local Time) from KHZL Reporting Station
Overcast Overcast  
Wind Chill: 63°   Ceiling: 1500
Heat Index: 63°   Visibility: 10mi
Dew Point: 55°   Wind: 14mph
Humidity: 77%   Direction: 160°SSE
Pressure: 29.62"   Gusts: 24mph
Location:  41.0036°N, 76.4553°W
Report Text: KHZL 241615Z AUTO 16012G21KT 140V200 10SM OVC015 17/13 A2962 RMK AO2
Loading
Personal Weather Stations






























Interactive Weather Map New forecast layout! Learn more

10-Day Weather Forecast

Advertisements
Track Severe Weather on mobile